Oxnard Airport Oxnard US
ICAO: KOXR
IATA: OXR
Category: Medium
Scheduled Services: No

Elevation: 45 ft
TransAlt. 18000 ft.

Airport Communications:
PT MUGU APP/DEP:124.7
ATIS:118.05
CTAF:134.95
GND:121.9
TWR:134.95

KOXR Zoom In..

If you have problems with the map follow the link
https://www.worldairports.se/pages/airport.php?
ICAO=KOXR

Runways:

(A) RW 07 length 5953 ft width 100 ft
---- / hdg 76

(B) RW 25 length 5953 ft width 100 ft
ILS 108.70 / hdg 256

Location; KOXR
Day. 18 / Time. 20.51 Zulu
* Altimeter: 30.22
* Temperature: 17° c. 62.6°f.
* Wind from: 270° Speed 06 kn.
Dewpoint: 13° c.
Visibility: 8 Statute Miles.
Clouds: Clear (automated report).

KOXR 182051Z 27006KT 8SM CLR 17/13 A3022 RMK AO2 SLP233 T01720128 58017


Wind From 270°
Speed 06 kn.

 
 
jpsmedia.com for Web Design worldairports.se 2019   terms of use